メインページ
METAR-TAF:

METAR-TAF

空港 :

大島空港

新居大島, 日本

緯度: 34-47N, 経度: 139-22E, 海抜: 38m

現時点の気象観測

当レポートは5時間37分前の07:00(UTC)に作成
北東の風 8kt
気温 20°C
湿度 68%
気圧 1011 hPa
視程10km以上
高度2000ftの雲はほとんどない
高度5000ftの雲は散在している
高度18000ftの千切れ雲あり

METAR: RJTO 160700Z 04008KT 9999 FEW020 SCT050 BKN180 20/14 Q1011

時間: 21:37 (12:37 UTC)


TAF: 見つかりません

4,000以上の空港の気象観測と天気予報(METAR報とTAF報)

利用可能な観測所は地図上に黄色い丸と赤い丸で示す。

丸の上にカーソルを重ねると観測所名を参照できる。

次にクリックすると気象観測と天気予報を参照できる。

マップの切り替え:黒色「×」印の緑ボタンをクリックして拡大、「-」印の緑ボタンをクリックして縮小、緑色の三角印をクリックして隣りの地図に切り替え


METAR-TAF: